Time;durP1;ratioP1;P1;durP2;ratioP2;P2;SDS_P1;SDS_P2;PMS_P1;PMS_P2;Temp;Humidity;BMP_temperature;BMP_pressure;BME280_temperature;BME280_humidity;BME280_pressure;Samples;Min_cycle;Max_cycle;Signal;HPM_P1;HPM_P2
2021/09/06 00:00:26;;;;;;;;;;;23.90;48.90;;;;;;1561558;75;774;-70
2021/09/06 00:02:28;;;;;;;;;;;23.90;49.00;;;;;;1554451;75;1943;-70
2021/09/06 00:04:30;;;;;;;;;;;23.90;48.90;;;;;;1557808;75;895;-71
2021/09/06 00:06:32;;;;;;;;;;;23.80;48.80;;;;;;1554283;75;1122;-71
2021/09/06 00:08:34;;;;;;;;;;;23.80;48.80;;;;;;1557195;75;786;-70
2021/09/06 00:10:40;;;;;;;;;;;23.90;48.90;;;;;;1548955;75;900;-72
2021/09/06 00:12:42;;;;;;;;;;;23.90;48.90;;;;;;1548914;75;809;-69
2021/09/06 00:14:43;;;;;;;;;;;23.90;49.00;;;;;;1548106;75;817;-70
2021/09/06 00:16:45;;;;;;;;;;;23.80;48.90;;;;;;1554640;75;1079;-70
2021/09/06 00:18:47;;;;;;;;;;;23.80;48.90;;;;;;1563294;75;849;-70
2021/09/06 00:20:49;;;;;;;;;;;23.90;49.00;;;;;;1555874;75;738;-71
2021/09/06 00:22:51;;;;;;;;;;;23.80;49.00;;;;;;1563844;75;1941;-72
2021/09/06 00:24:53;;;;;;;;;;;23.80;48.90;;;;;;1548699;75;750;-72
2021/09/06 00:26:55;;;;;;;;;;;23.80;48.90;;;;;;1548217;75;1086;-74
2021/09/06 00:28:58;;;;;;;;;;;23.80;48.90;;;;;;1550645;75;799;-72
2021/09/06 00:31:00;;;;;;;;;;;23.90;49.00;;;;;;1548278;75;782;-72
2021/09/06 00:33:02;;;;;;;;;;;23.80;49.00;;;;;;1550970;75;774;-72
2021/09/06 00:35:04;;;;;;;;;;;23.90;49.10;;;;;;1550048;75;1159;-72
2021/09/06 00:37:05;;;;;;;;;;;23.70;49.00;;;;;;1557753;75;798;-72
2021/09/06 00:39:07;;;;;;;;;;;23.90;49.00;;;;;;1557454;75;802;-72
2021/09/06 00:41:09;;;;;;;;;;;23.90;49.00;;;;;;1552089;75;819;-71
2021/09/06 00:43:11;;;;;;;;;;;23.80;48.90;;;;;;1557035;75;1927;-70
2021/09/06 00:45:13;;;;;;;;;;;23.80;48.90;;;;;;1547974;75;1135;-71
2021/09/06 00:47:15;;;;;;;;;;;23.80;48.90;;;;;;1557129;75;744;-73
2021/09/06 00:49:22;;;;;;;;;;;23.70;49.00;;;;;;1561326;75;810;-71
2021/09/06 00:51:21;;;;;;;;;;;23.80;49.00;;;;;;1550624;75;1264;-71
2021/09/06 00:53:23;;;;;;;;;;;23.80;49.00;;;;;;1551288;75;785;-71
2021/09/06 00:55:25;;;;;;;;;;;23.70;49.00;;;;;;1556600;75;1146;-72
2021/09/06 00:57:26;;;;;;;;;;;23.80;49.00;;;;;;1558301;75;806;-74
2021/09/06 00:59:28;;;;;;;;;;;23.80;49.00;;;;;;1550077;75;749;-71
2021/09/06 01:01:30;;;;;;;;;;;23.70;49.00;;;;;;1556518;75;910;-71
2021/09/06 01:03:32;;;;;;;;;;;23.80;49.00;;;;;;1548056;75;1939;-71
2021/09/06 01:05:34;;;;;;;;;;;23.80;49.10;;;;;;1553499;75;1189;-70
2021/09/06 01:07:36;;;;;;;;;;;23.70;49.10;;;;;;1549793;75;797;-71
2021/09/06 01:09:39;;;;;;;;;;;23.80;49.20;;;;;;1555432;75;745;-70
2021/09/06 01:11:41;;;;;;;;;;;23.80;49.10;;;;;;1548062;75;752;-71
2021/09/06 01:13:42;;;;;;;;;;;23.80;49.20;;;;;;1548105;75;798;-70
2021/09/06 01:15:44;;;;;;;;;;;23.70;49.10;;;;;;1553775;75;1139;-70
2021/09/06 01:17:46;;;;;;;;;;;23.80;49.10;;;;;;1561514;75;802;-70
2021/09/06 01:19:48;;;;;;;;;;;23.80;49.00;;;;;;1548018;75;787;-72
2021/09/06 01:21:50;;;;;;;;;;;23.70;49.10;;;;;;1552865;75;798;-71
2021/09/06 01:23:52;;;;;;;;;;;23.80;49.10;;;;;;1554229;75;1943;-70
2021/09/06 01:25:54;;;;;;;;;;;23.80;49.10;;;;;;1556808;75;1111;-70
2021/09/06 01:27:56;;;;;;;;;;;23.70;49.00;;;;;;1550901;75;798;-70
2021/09/06 01:29:57;;;;;;;;;;;23.80;49.00;;;;;;1549989;75;1071;-70
2021/09/06 01:31:59;;;;;;;;;;;23.80;49.00;;;;;;1551464;75;694;-71
2021/09/06 01:34:01;;;;;;;;;;;23.70;49.00;;;;;;1552021;75;1006;-71
2021/09/06 01:36:03;;;;;;;;;;;23.70;49.20;;;;;;1557961;75;1157;-73
2021/09/06 01:38:05;;;;;;;;;;;23.80;49.10;;;;;;1548072;75;726;-72
2021/09/06 01:40:07;;;;;;;;;;;23.70;49.10;;;;;;1548042;75;788;-70
2021/09/06 01:42:09;;;;;;;;;;;23.70;49.20;;;;;;1556095;75;779;-70
2021/09/06 01:44:11;;;;;;;;;;;23.70;49.10;;;;;;1558253;75;1934;-70
2021/09/06 01:46:13;;;;;;;;;;;23.80;49.10;;;;;;1549299;75;1154;-70
2021/09/06 01:48:15;;;;;;;;;;;23.80;49.00;;;;;;1557533;75;651;-72
2021/09/06 01:50:17;;;;;;;;;;;23.80;48.90;;;;;;1550052;75;782;-70
2021/09/06 01:52:19;;;;;;;;;;;23.80;48.90;;;;;;1549170;75;662;-71
2021/09/06 01:54:21;;;;;;;;;;;23.70;48.90;;;;;;1555219;75;750;-71
2021/09/06 01:56:22;;;;;;;;;;;23.70;48.90;;;;;;1547831;75;1081;-72
2021/09/06 01:58:24;;;;;;;;;;;23.80;48.90;;;;;;1548071;75;749;-70
2021/09/06 02:00:26;;;;;;;;;;;23.80;49.10;;;;;;1549147;75;752;-70
2021/09/06 02:02:28;;;;;;;;;;;23.70;49.00;;;;;;1547889;75;754;-70
2021/09/06 02:04:30;;;;;;;;;;;23.70;49.00;;;;;;1557150;75;1943;-70
2021/09/06 02:06:32;;;;;;;;;;;23.70;49.00;;;;;;1552707;75;1146;-71
2021/09/06 02:08:37;;;;;;;;;;;23.70;49.00;;;;;;1544576;75;770;-70
2021/09/06 02:10:38;;;;;;;;;;;23.70;48.90;;;;;;1550300;75;933;-70
2021/09/06 02:12:40;;;;;;;;;;;23.70;48.90;;;;;;1548726;75;780;-70
2021/09/06 02:14:42;;;;;;;;;;;23.70;48.90;;;;;;1554451;75;702;-71
2021/09/06 02:16:44;;;;;;;;;;;23.70;49.00;;;;;;1548226;75;1102;-72
2021/09/06 02:18:46;;;;;;;;;;;23.80;48.90;;;;;;1562686;75;759;-70
2021/09/06 02:20:48;;;;;;;;;;;23.70;48.90;;;;;;1549492;75;794;-71
2021/09/06 02:22:50;;;;;;;;;;;23.70;48.80;;;;;;1550068;75;747;-70
2021/09/06 02:24:52;;;;;;;;;;;23.70;48.80;;;;;;1553464;75;1927;-70
2021/09/06 02:26:54;;;;;;;;;;;23.70;48.90;;;;;;1548195;75;1051;-70
2021/09/06 02:28:56;;;;;;;;;;;23.70;48.80;;;;;;1550238;75;723;-70
2021/09/06 02:30:58;;;;;;;;;;;23.70;48.80;;;;;;1550386;75;746;-70
2021/09/06 02:33:00;;;;;;;;;;;23.70;48.70;;;;;;1551486;75;1069;-70
2021/09/06 02:35:02;;;;;;;;;;;23.70;48.70;;;;;;1548153;75;1111;-70
2021/09/06 02:37:04;;;;;;;;;;;23.70;48.80;;;;;;1547628;75;718;-71
2021/09/06 02:39:06;;;;;;;;;;;23.70;48.80;;;;;;1550156;75;878;-70
2021/09/06 02:41:07;;;;;;;;;;;23.70;48.70;;;;;;1548529;75;743;-70
2021/09/06 02:43:09;;;;;;;;;;;23.70;48.80;;;;;;1551395;75;804;-71
2021/09/06 02:45:11;;;;;;;;;;;23.70;48.70;;;;;;1556117;75;1939;-69
2021/09/06 02:47:13;;;;;;;;;;;23.70;48.70;;;;;;1548651;75;727;-70
2021/09/06 02:49:15;;;;;;;;;;;23.70;48.90;;;;;;1548191;75;720;-72
2021/09/06 02:51:17;;;;;;;;;;;23.70;48.90;;;;;;1548120;75;820;-71
2021/09/06 02:53:19;;;;;;;;;;;23.70;49.10;;;;;;1551095;75;771;-71
2021/09/06 02:55:21;;;;;;;;;;;23.70;48.90;;;;;;1549406;75;1171;-69
2021/09/06 02:57:22;;;;;;;;;;;23.70;49.00;;;;;;1551401;75;753;-70
2021/09/06 02:59:24;;;;;;;;;;;23.70;49.10;;;;;;1554811;75;822;-70
2021/09/06 03:01:26;;;;;;;;;;;23.70;49.00;;;;;;1550173;75;800;-70
2021/09/06 03:03:28;;;;;;;;;;;23.70;49.20;;;;;;1554733;75;791;-70
2021/09/06 03:05:31;;;;;;;;;;;23.70;49.10;;;;;;1551523;75;1939;-71
2021/09/06 03:07:33;;;;;;;;;;;23.60;48.90;;;;;;1570706;75;728;-71
2021/09/06 03:09:35;;;;;;;;;;;23.80;49.20;;;;;;1559384;75;767;-70
2021/09/06 03:11:38;;;;;;;;;;;23.70;49.00;;;;;;1548093;75;741;-70
2021/09/06 03:13:40;;;;;;;;;;;23.70;49.10;;;;;;1548007;75;769;-72
2021/09/06 03:15:42;;;;;;;;;;;23.70;49.00;;;;;;1552228;75;1153;-72
2021/09/06 03:17:43;;;;;;;;;;;23.70;49.00;;;;;;1552296;75;758;-71
2021/09/06 03:19:45;;;;;;;;;;;23.60;48.90;;;;;;1553616;75;801;-71
2021/09/06 03:21:47;;;;;;;;;;;23.70;49.00;;;;;;1548550;75;719;-71
2021/09/06 03:23:49;;;;;;;;;;;23.70;49.00;;;;;;1548758;75;1936;-71
2021/09/06 03:25:51;;;;;;;;;;;23.70;49.00;;;;;;1556811;75;1148;-71
2021/09/06 03:27:53;;;;;;;;;;;23.70;48.90;;;;;;1549785;75;770;-71
2021/09/06 03:29:55;;;;;;;;;;;23.70;48.90;;;;;;1552767;75;728;-74
2021/09/06 03:31:57;;;;;;;;;;;23.70;49.10;;;;;;1548726;75;1101;-70
2021/09/06 03:34:02;;;;;;;;;;;23.70;48.90;;;;;;1552887;75;733;-71
2021/09/06 03:36:04;;;;;;;;;;;23.80;49.10;;;;;;1548185;75;1150;-71
2021/09/06 03:38:06;;;;;;;;;;;23.70;49.20;;;;;;1551880;75;730;-69
2021/09/06 03:40:08;;;;;;;;;;;23.60;49.00;;;;;;1559207;75;727;-72
2021/09/06 03:42:10;;;;;;;;;;;23.70;49.20;;;;;;1548982;75;756;-73
2021/09/06 03:44:12;;;;;;;;;;;23.70;49.40;;;;;;1565521;75;1930;-72
2021/09/06 03:46:14;;;;;;;;;;;23.70;49.40;;;;;;1556268;75;1157;-71
2021/09/06 03:48:16;;;;;;;;;;;23.70;49.40;;;;;;1555489;75;708;-70
2021/09/06 03:50:17;;;;;;;;;;;23.70;49.40;;;;;;1557602;75;784;-69
2021/09/06 03:52:19;;;;;;;;;;;23.70;49.50;;;;;;1554260;75;735;-70
2021/09/06 03:54:21;;;;;;;;;;;23.70;49.50;;;;;;1548373;75;772;-70
2021/09/06 03:56:23;;;;;;;;;;;23.70;49.20;;;;;;1558061;75;1144;-71
2021/09/06 03:58:25;;;;;;;;;;;23.70;49.20;;;;;;1554669;75;736;-70
2021/09/06 04:00:27;;;;;;;;;;;23.70;49.10;;;;;;1562045;75;822;-70
2021/09/06 04:02:29;;;;;;;;;;;23.70;49.00;;;;;;1548521;75;713;-71
2021/09/06 04:04:30;;;;;;;;;;;23.70;48.90;;;;;;1548147;75;1954;-70
2021/09/06 04:06:33;;;;;;;;;;;23.70;48.80;;;;;;1555374;75;1193;-69
2021/09/06 04:08:35;;;;;;;;;;;23.70;48.90;;;;;;1549518;75;812;-70
2021/09/06 04:10:36;;;;;;;;;;;23.70;48.80;;;;;;1548075;75;743;-70
2021/09/06 04:12:39;;;;;;;;;;;23.70;48.70;;;;;;1550704;75;691;-70
2021/09/06 04:14:41;;;;;;;;;;;23.70;48.70;;;;;;1561352;75;688;-70
2021/09/06 04:16:43;;;;;;;;;;;23.60;48.50;;;;;;1552550;75;1134;-69
2021/09/06 04:18:45;;;;;;;;;;;23.70;48.70;;;;;;1550387;75;769;-70
2021/09/06 04:20:47;;;;;;;;;;;23.80;48.60;;;;;;1556935;75;752;-70
2021/09/06 04:22:49;;;;;;;;;;;23.80;48.70;;;;;;1552202;75;810;-70
2021/09/06 04:24:51;;;;;;;;;;;23.70;48.80;;;;;;1548281;75;1952;-71
2021/09/06 04:26:53;;;;;;;;;;;23.70;48.80;;;;;;1555927;75;1094;-69
2021/09/06 04:28:55;;;;;;;;;;;23.70;48.70;;;;;;1561884;75;763;-70
2021/09/06 04:30:57;;;;;;;;;;;23.70;48.70;;;;;;1556743;75;734;-72
2021/09/06 04:32:59;;;;;;;;;;;23.70;48.60;;;;;;1554267;75;745;-70
2021/09/06 04:35:01;;;;;;;;;;;23.70;48.70;;;;;;1557591;75;750;-70
2021/09/06 04:37:04;;;;;;;;;;;23.60;48.60;;;;;;1548690;75;740;-70
2021/09/06 04:39:06;;;;;;;;;;;23.70;48.60;;;;;;1557974;75;774;-70
2021/09/06 04:41:08;;;;;;;;;;;23.70;48.60;;;;;;1554186;75;721;-70
2021/09/06 04:43:10;;;;;;;;;;;23.70;48.80;;;;;;1546469;75;702;-70
2021/09/06 04:45:12;;;;;;;;;;;23.60;48.60;;;;;;1547974;75;1948;-70
2021/09/06 04:47:15;;;;;;;;;;;23.70;48.50;;;;;;1549194;75;734;-70
2021/09/06 04:49:16;;;;;;;;;;;23.70;48.60;;;;;;1552515;75;743;-69
2021/09/06 04:51:18;;;;;;;;;;;23.60;48.90;;;;;;1550526;75;809;-70
2021/09/06 04:53:20;;;;;;;;;;;23.70;49.10;;;;;;1553715;75;749;-71
2021/09/06 04:55:22;;;;;;;;;;;23.60;48.90;;;;;;1548832;75;1170;-70
2021/09/06 04:57:25;;;;;;;;;;;23.70;48.80;;;;;;1557246;75;778;-70
2021/09/06 04:59:27;;;;;;;;;;;23.70;48.60;;;;;;1550782;75;740;-71
2021/09/06 05:01:29;;;;;;;;;;;23.70;48.50;;;;;;1550055;75;747;-71
2021/09/06 05:03:30;;;;;;;;;;;23.70;48.60;;;;;;1560705;75;760;-70
2021/09/06 05:05:32;;;;;;;;;;;23.70;48.60;;;;;;1556187;75;1939;-69
2021/09/06 05:07:34;;;;;;;;;;;23.70;48.90;;;;;;1560303;75;754;-71
2021/09/06 05:09:36;;;;;;;;;;;23.70;48.90;;;;;;1549287;75;779;-70
2021/09/06 05:11:38;;;;;;;;;;;23.70;48.30;;;;;;1552374;75;765;-69
2021/09/06 05:13:40;;;;;;;;;;;23.70;48.10;;;;;;1550531;75;738;-69
2021/09/06 05:15:42;;;;;;;;;;;23.60;47.60;;;;;;1551254;75;1148;-72
2021/09/06 05:17:44;;;;;;;;;;;23.80;47.60;;;;;;1556004;75;712;-71
2021/09/06 05:19:46;;;;;;;;;;;23.60;47.30;;;;;;1552011;75;736;-70
2021/09/06 05:21:48;;;;;;;;;;;23.60;47.40;;;;;;1552239;75;731;-72
2021/09/06 05:23:50;;;;;;;;;;;23.60;47.40;;;;;;1554660;75;782;-70
2021/09/06 05:25:53;;;;;;;;;;;23.60;47.30;;;;;;1553190;75;1931;-71
2021/09/06 05:27:55;;;;;;;;;;;23.60;47.30;;;;;;1554762;75;797;-71
2021/09/06 05:29:57;;;;;;;;;;;23.60;47.20;;;;;;1562832;75;753;-70
2021/09/06 05:31:59;;;;;;;;;;;23.70;47.30;;;;;;1554379;75;720;-70
2021/09/06 05:34:01;;;;;;;;;;;23.60;47.30;;;;;;1559812;75;768;-72
2021/09/06 05:36:03;;;;;;;;;;;23.60;47.30;;;;;;1548290;75;1147;-70
2021/09/06 05:38:05;;;;;;;;;;;23.60;47.30;;;;;;1548355;75;674;-71
2021/09/06 05:40:07;;;;;;;;;;;23.60;47.40;;;;;;1548884;75;801;-70
2021/09/06 05:42:09;;;;;;;;;;;23.60;47.40;;;;;;1547854;75;792;-70
2021/09/06 05:44:11;;;;;;;;;;;23.60;47.40;;;;;;1559738;75;707;-69
2021/09/06 05:46:13;;;;;;;;;;;23.60;47.50;;;;;;1548018;75;1943;-69
2021/09/06 05:48:14;;;;;;;;;;;23.60;47.40;;;;;;1556600;75;784;-69
2021/09/06 05:50:19;;;;;;;;;;;23.60;47.30;;;;;;1555754;75;810;-70
2021/09/06 05:52:21;;;;;;;;;;;23.60;47.30;;;;;;1548685;75;783;-69
2021/09/06 05:54:23;;;;;;;;;;;23.60;47.30;;;;;;1553339;75;766;-70
2021/09/06 05:56:25;;;;;;;;;;;23.60;47.20;;;;;;1566492;75;1227;-70
2021/09/06 05:58:26;;;;;;;;;;;23.60;47.30;;;;;;1548838;75;795;-70
2021/09/06 06:00:28;;;;;;;;;;;23.60;47.30;;;;;;1548257;75;811;-69
2021/09/06 06:02:30;;;;;;;;;;;23.60;47.50;;;;;;1548724;75;702;-69
2021/09/06 06:04:32;;;;;;;;;;;23.50;47.50;;;;;;1548619;75;738;-71
2021/09/06 06:06:34;;;;;;;;;;;23.60;47.60;;;;;;1550467;75;1950;-70
2021/09/06 06:08:36;;;;;;;;;;;23.60;47.70;;;;;;1551059;75;761;-71
2021/09/06 06:10:38;;;;;;;;;;;23.60;47.80;;;;;;1548351;75;701;-70
2021/09/06 06:12:40;;;;;;;;;;;23.60;47.80;;;;;;1550985;75;781;-71
2021/09/06 06:14:41;;;;;;;;;;;23.60;47.90;;;;;;1549219;75;778;-71
2021/09/06 06:16:43;;;;;;;;;;;23.60;47.80;;;;;;1555897;75;1097;-73
2021/09/06 06:18:45;;;;;;;;;;;23.60;47.80;;;;;;1551075;75;648;-73
2021/09/06 06:20:47;;;;;;;;;;;23.60;48.00;;;;;;1548298;75;792;-72
2021/09/06 06:22:49;;;;;;;;;;;23.70;48.30;;;;;;1548515;75;705;-72
2021/09/06 06:24:51;;;;;;;;;;;23.60;48.30;;;;;;1548452;75;1954;-71
2021/09/06 06:26:53;;;;;;;;;;;23.60;48.50;;;;;;1549697;75;1148;-70
2021/09/06 06:28:55;;;;;;;;;;;23.60;48.80;;;;;;1555956;75;675;-70
2021/09/06 06:30:56;;;;;;;;;;;23.60;48.00;;;;;;1552629;75;715;-68
2021/09/06 06:32:58;;;;;;;;;;;23.70;47.90;;;;;;1552216;75;741;-70
2021/09/06 06:35:00;;;;;;;;;;;23.60;47.80;;;;;;1557550;75;798;-69
2021/09/06 06:37:02;;;;;;;;;;;23.60;47.90;;;;;;1561446;75;762;-70
2021/09/06 06:39:05;;;;;;;;;;;23.60;47.90;;;;;;1549101;75;785;-70
2021/09/06 06:41:07;;;;;;;;;;;23.60;48.00;;;;;;1548208;75;813;-70
2021/09/06 06:43:09;;;;;;;;;;;23.60;48.00;;;;;;1553059;75;746;-69
2021/09/06 06:45:11;;;;;;;;;;;23.60;47.90;;;;;;1549162;75;1935;-70
2021/09/06 06:47:13;;;;;;;;;;;23.50;47.90;;;;;;1549020;75;728;-69
2021/09/06 06:49:15;;;;;;;;;;;23.60;47.90;;;;;;1549921;75;761;-70
2021/09/06 06:51:17;;;;;;;;;;;23.60;47.90;;;;;;1547971;75;752;-71
2021/09/06 06:53:19;;;;;;;;;;;23.50;47.80;;;;;;1552743;75;797;-70
2021/09/06 06:55:21;;;;;;;;;;;23.50;47.90;;;;;;1555797;75;1163;-74
2021/09/06 06:57:23;;;;;;;;;;;23.50;47.80;;;;;;1557561;75;1018;-69
2021/09/06 06:59:25;;;;;;;;;;;23.50;47.80;;;;;;1553211;75;720;-70
2021/09/06 07:01:27;;;;;;;;;;;23.50;47.80;;;;;;1555251;75;763;-70
2021/09/06 07:03:28;;;;;;;;;;;23.50;47.80;;;;;;1549710;75;703;-70
2021/09/06 07:05:30;;;;;;;;;;;23.50;47.80;;;;;;1554058;75;1942;-69
2021/09/06 07:07:32;;;;;;;;;;;23.50;47.80;;;;;;1553796;75;690;-70
2021/09/06 07:09:34;;;;;;;;;;;23.50;47.80;;;;;;1564051;75;730;-69
2021/09/06 07:11:36;;;;;;;;;;;23.50;47.80;;;;;;1549062;75;743;-70
2021/09/06 07:13:38;;;;;;;;;;;23.50;47.80;;;;;;1555842;75;697;-70
2021/09/06 07:15:40;;;;;;;;;;;23.50;47.80;;;;;;1550629;75;1153;-70
2021/09/06 07:17:42;;;;;;;;;;;23.50;47.80;;;;;;1548571;75;719;-69
2021/09/06 07:19:44;;;;;;;;;;;23.50;47.80;;;;;;1551050;75;713;-70
2021/09/06 07:21:46;;;;;;;;;;;23.40;47.60;;;;;;1560334;75;741;-71
2021/09/06 07:23:48;;;;;;;;;;;23.50;47.80;;;;;;1562367;75;812;-67
2021/09/06 07:25:50;;;;;;;;;;;23.50;47.60;;;;;;1552086;75;1939;-71
2021/09/06 07:27:51;;;;;;;;;;;23.60;47.80;;;;;;1550996;75;715;-66
2021/09/06 07:29:53;;;;;;;;;;;23.50;47.70;;;;;;1548188;75;688;-69
2021/09/06 07:31:55;;;;;;;;;;;23.60;47.60;;;;;;1558598;75;710;-69
2021/09/06 07:33:57;;;;;;;;;;;23.50;47.50;;;;;;1550844;75;922;-70
2021/09/06 07:35:59;;;;;;;;;;;23.50;47.60;;;;;;1548947;75;1177;-70
2021/09/06 07:38:01;;;;;;;;;;;23.50;47.60;;;;;;1562949;75;944;-72
2021/09/06 07:40:03;;;;;;;;;;;23.50;47.50;;;;;;1552982;75;757;-70
2021/09/06 07:42:05;;;;;;;;;;;23.50;47.60;;;;;;1554061;75;728;-70
2021/09/06 07:44:07;;;;;;;;;;;23.50;47.60;;;;;;1554076;75;1070;-70
2021/09/06 07:46:08;;;;;;;;;;;23.50;47.60;;;;;;1552354;75;2018;-70
2021/09/06 07:48:10;;;;;;;;;;;23.60;47.60;;;;;;1558814;75;823;-70
2021/09/06 07:50:12;;;;;;;;;;;23.60;47.70;;;;;;1558615;75;727;-70
2021/09/06 07:52:14;;;;;;;;;;;23.60;47.60;;;;;;1550131;75;659;-70
2021/09/06 07:54:16;;;;;;;;;;;23.60;47.60;;;;;;1548243;75;907;-71
2021/09/06 07:56:18;;;;;;;;;;;23.70;47.60;;;;;;1548164;75;1194;-72
2021/09/06 07:58:20;;;;;;;;;;;23.70;47.60;;;;;;1554486;75;770;-70
2021/09/06 08:00:22;;;;;;;;;;;23.70;47.60;;;;;;1555082;75;780;-71
2021/09/06 08:02:24;;;;;;;;;;;23.80;47.40;;;;;;1548039;75;717;-68
2021/09/06 08:04:26;;;;;;;;;;;23.80;47.40;;;;;;1548546;75;787;-70
2021/09/06 08:06:28;;;;;;;;;;;23.90;47.50;;;;;;1551891;75;1923;-70
2021/09/06 08:08:30;;;;;;;;;;;23.90;47.50;;;;;;1556578;75;764;-70
2021/09/06 08:10:32;;;;;;;;;;;23.90;47.50;;;;;;1552596;75;796;-70
2021/09/06 08:12:34;;;;;;;;;;;24.00;47.40;;;;;;1556827;75;763;-70
2021/09/06 08:14:38;;;;;;;;;;;24.00;47.30;;;;;;1555954;75;771;-70
2021/09/06 08:16:39;;;;;;;;;;;24.00;47.30;;;;;;1557633;75;1531;-69
2021/09/06 08:18:41;;;;;;;;;;;24.10;47.30;;;;;;1549109;75;804;-68
2021/09/06 08:20:43;;;;;;;;;;;24.10;47.40;;;;;;1553782;75;778;-70
2021/09/06 08:22:45;;;;;;;;;;;24.10;47.20;;;;;;1561428;75;779;-69
2021/09/06 08:24:47;;;;;;;;;;;24.20;47.20;;;;;;1557827;75;758;-70
2021/09/06 08:26:49;;;;;;;;;;;24.20;47.10;;;;;;1564177;75;1955;-70
2021/09/06 08:28:51;;;;;;;;;;;24.30;47.10;;;;;;1563804;75;807;-72
2021/09/06 08:30:53;;;;;;;;;;;24.30;47.10;;;;;;1551206;75;762;-71
2021/09/06 08:32:55;;;;;;;;;;;24.30;47.10;;;;;;1552390;75;808;-71
2021/09/06 08:34:59;;;;;;;;;;;24.40;46.90;;;;;;1561546;75;658;-71
2021/09/06 08:37:01;;;;;;;;;;;24.50;46.80;;;;;;1561718;75;1738;-72
2021/09/06 08:39:03;;;;;;;;;;;24.50;46.80;;;;;;1558135;75;803;-71
2021/09/06 08:41:04;;;;;;;;;;;24.50;46.80;;;;;;1556830;75;739;-68
2021/09/06 08:43:06;;;;;;;;;;;24.50;46.80;;;;;;1551832;75;777;-70
2021/09/06 08:45:10;;;;;;;;;;;24.50;46.80;;;;;;1552534;75;1146;-68
2021/09/06 08:47:13;;;;;;;;;;;24.50;46.30;;;;;;1556994;75;1922;-69
2021/09/06 08:49:15;;;;;;;;;;;24.50;46.60;;;;;;1543244;75;756;-71
2021/09/06 08:51:17;;;;;;;;;;;24.50;46.30;;;;;;1552354;75;676;-71
2021/09/06 08:53:20;;;;;;;;;;;24.50;46.10;;;;;;1550482;75;790;-69
2021/09/06 08:55:22;;;;;;;;;;;24.40;46.00;;;;;;1550236;75;1111;-67
2021/09/06 08:57:23;;;;;;;;;;;24.40;46.00;;;;;;1557488;75;827;-73
2021/09/06 08:59:25;;;;;;;;;;;24.50;45.90;;;;;;1548002;75;731;-71
2021/09/06 09:01:39;;;;;;;;;;;24.40;45.80;;;;;;1554991;75;786;-69
2021/09/06 09:03:41;;;;;;;;;;;24.50;46.00;;;;;;1552568;75;713;-70
2021/09/06 09:05:57;;;;;;;;;;;24.40;45.80;;;;;;1554304;75;1153;-70
2021/09/06 09:08:00;;;;;;;;;;;24.40;46.00;;;;;;1555853;75;1831;-68
2021/09/06 09:10:02;;;;;;;;;;;24.40;46.20;;;;;;1559840;75;832;-70
2021/09/06 09:12:11;;;;;;;;;;;24.30;46.00;;;;;;1558427;75;989;-71
2021/09/06 09:14:12;;;;;;;;;;;24.30;46.20;;;;;;1558424;75;726;-74
2021/09/06 09:16:14;;;;;;;;;;;24.30;46.40;;;;;;1563697;75;1187;-71
2021/09/06 09:18:18;;;;;;;;;;;24.40;46.50;;;;;;1554127;75;724;-72
2021/09/06 09:20:20;;;;;;;;;;;24.30;46.70;;;;;;1555699;75;1818;-74
2021/09/06 09:22:23;;;;;;;;;;;24.20;46.70;;;;;;1555398;75;728;-73
2021/09/06 09:24:25;;;;;;;;;;;24.30;47.30;;;;;;1558419;75;1191;-69
2021/09/06 09:26:28;;;;;;;;;;;24.20;47.10;;;;;;1560144;75;1954;-71
2021/09/06 09:28:30;;;;;;;;;;;24.20;47.10;;;;;;1555296;75;707;-72
2021/09/06 09:30:32;;;;;;;;;;;24.20;47.20;;;;;;1554669;75;804;-71
2021/09/06 09:32:37;;;;;;;;;;;24.20;47.50;;;;;;1556869;75;809;-72
2021/09/06 09:34:39;;;;;;;;;;;24.30;47.70;;;;;;1554554;75;763;-70
2021/09/06 09:36:42;;;;;;;;;;;24.30;47.90;;;;;;1560093;75;1173;-69
2021/09/06 09:38:44;;;;;;;;;;;24.20;47.40;;;;;;1558755;75;783;-71
2021/09/06 09:40:46;;;;;;;;;;;24.20;47.40;;;;;;1554677;75;837;-69
2021/09/06 09:42:48;;;;;;;;;;;24.20;47.30;;;;;;1547525;75;728;-70
2021/09/06 09:44:51;;;;;;;;;;;24.30;47.60;;;;;;1557039;75;742;-67
2021/09/06 09:46:55;;;;;;;;;;;24.20;47.50;;;;;;1556197;75;1989;-71
2021/09/06 09:48:57;;;;;;;;;;;24.30;47.30;;;;;;1554242;75;679;-69
2021/09/06 09:50:58;;;;;;;;;;;24.30;47.40;;;;;;1551231;75;1160;-70
2021/09/06 09:53:00;;;;;;;;;;;24.30;47.30;;;;;;1567005;75;733;-69
2021/09/06 09:55:02;;;;;;;;;;;24.40;46.80;;;;;;1564480;75;797;-69
2021/09/06 09:57:04;;;;;;;;;;;24.40;47.10;;;;;;1573335;75;804;-70
2021/09/06 09:59:06;;;;;;;;;;;24.30;46.90;;;;;;1567542;75;721;-69
2021/09/06 10:01:08;;;;;;;;;;;24.40;46.10;;;;;;1572118;75;804;-70
2021/09/06 10:03:10;;;;;;;;;;;24.40;46.60;;;;;;1549794;75;761;-71
2021/09/06 10:05:12;;;;;;;;;;;24.30;46.50;;;;;;1548658;75;1138;-69
2021/09/06 10:07:14;;;;;;;;;;;24.20;46.30;;;;;;1547530;75;1948;-70
2021/09/06 10:09:16;;;;;;;;;;;24.30;46.30;;;;;;1549642;75;685;-71
2021/09/06 10:11:18;;;;;;;;;;;24.30;46.50;;;;;;1545757;75;785;-70
2021/09/06 10:13:20;;;;;;;;;;;24.30;46.50;;;;;;1550227;75;653;-69
2021/09/06 10:15:22;;;;;;;;;;;24.40;46.00;;;;;;1549325;75;1131;-70
2021/09/06 10:17:36;;;;;;;;;;;24.30;46.30;;;;;;1550756;75;1034;-72
2021/09/06 10:19:39;;;;;;;;;;;24.20;45.70;;;;;;1546416;75;756;-70
2021/09/06 10:21:44;;;;;;;;;;;24.10;45.50;;;;;;1550059;75;753;-71
2021/09/06 10:23:47;;;;;;;;;;;24.10;46.20;;;;;;1558731;75;793;-74
2021/09/06 10:25:51;;;;;;;;;;;24.20;46.20;;;;;;1547576;75;1409;-70
2021/09/06 10:27:53;;;;;;;;;;;24.20;46.40;;;;;;1557141;75;1913;-70
2021/09/06 10:29:59;;;;;;;;;;;24.20;45.90;;;;;;1551839;75;709;-71
2021/09/06 10:32:02;;;;;;;;;;;24.10;46.10;;;;;;1558533;75;693;-69
2021/09/06 10:34:04;;;;;;;;;;;24.10;45.90;;;;;;1547841;75;782;-70
2021/09/06 10:36:12;;;;;;;;;;;24.10;46.10;;;;;;1549792;75;1115;-72
2021/09/06 10:38:14;;;;;;;;;;;24.10;46.30;;;;;;1548087;75;762;-73
2021/09/06 10:40:18;;;;;;;;;;;24.10;46.30;;;;;;1563010;75;716;-71
2021/09/06 10:42:20;;;;;;;;;;;24.10;45.60;;;;;;1547561;75;1127;-73
2021/09/06 10:44:21;;;;;;;;;;;24.10;46.00;;;;;;1549302;75;1171;-72
2021/09/06 10:46:24;;;;;;;;;;;24.00;46.20;;;;;;1535849;76;1944;-72
2021/09/06 10:48:26;;;;;;;;;;;24.10;45.80;;;;;;1557660;75;812;-71
2021/09/06 10:50:28;;;;;;;;;;;24.00;45.00;;;;;;1548954;75;735;-72
2021/09/06 10:52:30;;;;;;;;;;;24.00;45.30;;;;;;1549880;75;768;-71
2021/09/06 10:54:36;;;;;;;;;;;24.00;44.70;;;;;;1545584;75;803;-71
2021/09/06 10:56:38;;;;;;;;;;;23.90;43.40;;;;;;1549995;75;1241;-71
2021/09/06 10:58:40;;;;;;;;;;;23.90;43.70;;;;;;1549750;75;802;-72
2021/09/06 11:00:43;;;;;;;;;;;23.90;44.10;;;;;;1550193;75;707;-73
2021/09/06 11:02:48;;;;;;;;;;;23.90;45.00;;;;;;1546728;75;1852;-74
2021/09/06 11:04:49;;;;;;;;;;;23.80;44.80;;;;;;1548802;75;1695;-72
2021/09/06 11:07:04;;;;;;;;;;;23.90;45.00;;;;;;1553077;75;1946;-73
2021/09/06 11:09:06;;;;;;;;;;;23.90;45.20;;;;;;1553000;75;723;-74
2021/09/06 11:11:08;;;;;;;;;;;23.90;44.80;;;;;;1545751;77;725;-72
2021/09/06 11:13:10;;;;;;;;;;;23.80;44.90;;;;;;1546703;75;706;-73
2021/09/06 11:15:12;;;;;;;;;;;23.80;44.80;;;;;;1555088;75;1138;-72
2021/09/06 11:17:18;;;;;;;;;;;23.80;43.40;;;;;;1547662;76;1215;-72
2021/09/06 11:19:19;;;;;;;;;;;23.80;43.90;;;;;;1545717;75;921;-73
2021/09/06 11:21:21;;;;;;;;;;;23.90;43.90;;;;;;1545755;75;729;-69
2021/09/06 11:23:25;;;;;;;;;;;23.90;42.80;;;;;;1548304;75;723;-72
2021/09/06 11:25:27;;;;;;;;;;;23.90;43.60;;;;;;1547197;75;1157;-72
2021/09/06 11:27:30;;;;;;;;;;;23.70;43.90;;;;;;1547254;75;1915;-74
2021/09/06 11:29:34;;;;;;;;;;;23.80;44.00;;;;;;1548783;75;799;-73
2021/09/06 11:31:36;;;;;;;;;;;23.80;43.50;;;;;;1549247;75;1835;-70
2021/09/06 11:33:37;;;;;;;;;;;23.80;44.20;;;;;;1550440;75;794;-69
2021/09/06 11:35:44;;;;;;;;;;;23.90;44.40;;;;;;1553692;75;1267;-70
2021/09/06 11:37:46;;;;;;;;;;;23.90;44.40;;;;;;1554371;75;706;-69
2021/09/06 11:39:47;;;;;;;;;;;23.90;44.60;;;;;;1557826;75;803;-68
2021/09/06 11:41:49;;;;;;;;;;;23.90;44.60;;;;;;1550232;75;777;-69
2021/09/06 11:43:51;;;;;;;;;;;23.90;44.60;;;;;;1553218;75;768;-69
2021/09/06 11:45:59;;;;;;;;;;;23.90;44.70;;;;;;1547123;75;1136;-69
2021/09/06 11:48:02;;;;;;;;;;;23.90;44.80;;;;;;1555113;75;1942;-69
2021/09/06 11:50:05;;;;;;;;;;;24.00;44.80;;;;;;1551921;75;753;-69
2021/09/06 11:52:08;;;;;;;;;;;24.00;44.90;;;;;;1556609;75;739;-69
2021/09/06 11:54:11;;;;;;;;;;;24.00;45.00;;;;;;1567966;75;771;-69
2021/09/06 11:56:13;;;;;;;;;;;24.00;45.00;;;;;;1577944;75;1183;-69
2021/09/06 11:58:15;;;;;;;;;;;24.00;45.00;;;;;;1572821;75;736;-70
2021/09/06 12:00:18;;;;;;;;;;;23.90;45.10;;;;;;1574327;75;750;-69
2021/09/06 12:02:21;;;;;;;;;;;24.00;45.10;;;;;;1550303;75;817;-68
2021/09/06 12:04:22;;;;;;;;;;;23.90;45.10;;;;;;1558447;75;785;-68
2021/09/06 12:06:26;;;;;;;;;;;24.00;45.20;;;;;;1555160;75;1149;-69
2021/09/06 12:08:28;;;;;;;;;;;24.00;45.20;;;;;;1545587;75;1937;-70